createdAt,value
2022-10-25T00:02:24.293Z,2.67
2022-10-25T00:04:51.339Z,2.95
2022-10-25T00:07:18.421Z,2.67
2022-10-25T00:12:43.294Z,2.53
2022-10-25T00:15:13.200Z,2.47
2022-10-25T00:17:41.066Z,2.63
2022-10-25T00:20:09.728Z,2.20
2022-10-25T00:22:37.178Z,2.17
2022-10-25T00:25:06.500Z,2.60
2022-10-25T00:27:34.377Z,2.75
2022-10-25T00:30:01.874Z,2.70
2022-10-25T00:32:28.921Z,2.42
2022-10-25T00:34:55.947Z,2.50
2022-10-25T00:37:22.804Z,2.33
2022-10-25T00:39:49.785Z,2.22
2022-10-25T00:42:26.889Z,3.10
2022-10-25T00:45:01.745Z,3.85
2022-10-25T00:47:46.173Z,3.55
2022-10-25T00:50:49.999Z,3.38
2022-10-25T00:53:32.267Z,2.78
2022-10-25T00:56:16.459Z,2.50
2022-10-25T00:58:50.461Z,3.53
2022-10-25T01:01:18.703Z,2.55
2022-10-25T01:03:48.135Z,2.35
2022-10-25T01:06:23.631Z,3.13
2022-10-25T01:08:53.264Z,3.00
2022-10-25T01:11:20.675Z,2.92
2022-10-25T01:13:49.636Z,2.97
2022-10-25T01:16:53.888Z,2.97
2022-10-25T01:19:45.788Z,2.53
2022-10-25T01:22:38.910Z,2.00
2022-10-25T01:25:34.861Z,2.50
2022-10-25T01:28:27.419Z,2.63
2022-10-25T01:32:11.445Z,3.17
2022-10-25T01:34:47.992Z,2.70
2022-10-25T01:40:04.175Z,3.13
2022-10-25T01:43:00.259Z,2.47
2022-10-25T01:45:52.311Z,2.72
2022-10-25T01:48:38.056Z,2.90
2022-10-25T01:51:16.509Z,2.70
2022-10-25T01:53:51.977Z,2.47
2022-10-25T01:56:46.888Z,3.20
2022-10-25T01:59:24.954Z,2.65
2022-10-25T02:02:36.894Z,2.80
2022-10-25T02:05:37.861Z,2.60
2022-10-25T02:08:29.911Z,2.88
2022-10-25T02:11:09.246Z,3.22
2022-10-25T02:14:13.620Z,3.28
2022-10-25T02:17:13.630Z,3.10
2022-10-25T02:19:46.195Z,2.70
2022-10-25T02:22:14.846Z,2.90
2022-10-25T02:24:45.939Z,3.17
2022-10-25T02:27:14.071Z,4.25
2022-10-25T02:29:42.811Z,2.78
2022-10-25T02:32:09.914Z,2.75
2022-10-25T02:34:37.063Z,2.95
2022-10-25T02:37:03.908Z,3.53
2022-10-25T02:39:31.705Z,3.08
2022-10-25T02:42:02.148Z,2.83
2022-10-25T02:44:29.342Z,3.17
2022-10-25T02:46:56.160Z,3.03
2022-10-25T02:49:23.128Z,3.22
2022-10-25T02:52:15.500Z,3.00
2022-10-25T02:54:42.348Z,3.50
2022-10-25T02:57:09.366Z,2.72
2022-10-25T02:59:36.216Z,2.90
2022-10-25T03:02:03.058Z,3.28
2022-10-25T03:04:30.219Z,2.92
2022-10-25T03:06:57.748Z,3.50
2022-10-25T03:09:24.535Z,3.40
2022-10-25T03:11:51.683Z,2.90
2022-10-25T03:14:18.684Z,2.97
2022-10-25T03:16:45.558Z,3.10
2022-10-25T03:19:12.395Z,3.10
2022-10-25T03:21:41.292Z,2.97
2022-10-25T03:24:09.153Z,3.25
2022-10-25T03:26:35.964Z,3.50
2022-10-25T03:29:02.822Z,3.42
2022-10-25T03:31:29.879Z,2.95
2022-10-25T03:33:56.713Z,2.75
2022-10-25T03:36:23.520Z,2.40
2022-10-25T03:38:50.512Z,3.22
2022-10-25T03:41:17.669Z,3.03
2022-10-25T03:43:44.533Z,3.28
2022-10-25T03:46:13.963Z,3.42
2022-10-25T03:48:41.066Z,2.70
2022-10-25T03:51:08.310Z,2.90
2022-10-25T03:53:35.078Z,2.05
2022-10-25T03:56:02.262Z,2.50
2022-10-25T03:58:29.263Z,2.35
2022-10-25T04:00:56.463Z,3.22
2022-10-25T04:03:23.987Z,2.60
2022-10-25T04:05:50.904Z,3.55
2022-10-25T04:08:18.039Z,3.25
2022-10-25T04:10:44.869Z,2.67
2022-10-25T04:13:12.076Z,3.28
2022-10-25T04:15:38.928Z,2.80
2022-10-25T04:18:06.427Z,3.25
2022-10-25T04:20:33.337Z,3.58
2022-10-25T04:23:00.149Z,2.72
2022-10-25T04:25:28.809Z,2.58
2022-10-25T04:27:55.866Z,2.63
2022-10-25T04:30:23.118Z,2.60
2022-10-25T04:32:50.286Z,2.00
2022-10-25T04:35:18.030Z,2.17
2022-10-25T04:37:44.889Z,2.13
2022-10-25T04:40:12.067Z,2.38
2022-10-25T04:42:39.168Z,2.50
2022-10-25T04:45:06.631Z,2.05
2022-10-25T04:47:34.092Z,2.35
2022-10-25T04:50:00.975Z,2.00
2022-10-25T04:52:32.180Z,2.45
2022-10-25T04:54:59.259Z,2.53
2022-10-25T04:57:26.865Z,2.33
2022-10-25T04:59:53.834Z,2.63
2022-10-25T05:02:20.680Z,1.92
2022-10-25T05:04:47.713Z,2.40
2022-10-25T05:07:18.503Z,2.28
2022-10-25T05:09:47.394Z,2.20
2022-10-25T05:12:15.003Z,3.25
2022-10-25T05:14:41.840Z,2.08
2022-10-25T05:17:08.703Z,2.00
2022-10-25T05:19:35.737Z,2.13
2022-10-25T05:22:02.758Z,2.40
2022-10-25T05:24:29.644Z,2.40
2022-10-25T05:26:56.636Z,2.35
2022-10-25T05:29:23.549Z,2.20
2022-10-25T05:31:50.761Z,1.88
2022-10-25T05:34:17.565Z,1.85
2022-10-25T05:36:44.553Z,2.33
2022-10-25T05:39:11.489Z,2.25
2022-10-25T05:41:38.297Z,1.88
2022-10-25T05:44:06.242Z,2.25
2022-10-25T05:46:33.322Z,2.42
2022-10-25T05:49:00.571Z,1.90
2022-10-25T05:51:37.624Z,2.40
2022-10-25T05:54:12.230Z,2.25
2022-10-25T05:56:40.174Z,2.45
2022-10-25T05:59:10.772Z,2.60
2022-10-25T06:01:41.510Z,2.38
2022-10-25T06:04:09.837Z,2.30
2022-10-25T06:06:38.610Z,1.98
2022-10-25T06:09:06.603Z,1.95
2022-10-25T06:11:33.856Z,2.05
2022-10-25T06:14:02.521Z,2.15
2022-10-25T06:16:29.550Z,1.98
2022-10-25T06:18:56.548Z,1.85
2022-10-25T06:21:33.877Z,2.33
2022-10-25T06:24:00.780Z,2.47
2022-10-25T06:26:30.108Z,1.92
2022-10-25T06:29:03.238Z,2.38
2022-10-25T06:31:31.501Z,1.67
2022-10-25T06:34:02.818Z,2.55
2022-10-25T06:36:31.408Z,2.20
2022-10-25T06:39:03.769Z,2.30
2022-10-25T06:41:37.236Z,1.87
2022-10-25T06:44:06.720Z,2.45
2022-10-25T06:46:57.956Z,1.83
2022-10-25T06:49:25.112Z,2.20
2022-10-25T06:51:52.342Z,2.00
2022-10-25T06:54:19.487Z,2.25
2022-10-25T06:56:46.466Z,2.28
2022-10-25T06:59:13.480Z,1.95
2022-10-25T07:01:40.373Z,2.20
2022-10-25T07:04:07.566Z,2.40
2022-10-25T07:06:37.467Z,2.30
2022-10-25T07:09:06.578Z,2.03
2022-10-25T07:11:33.821Z,2.00
2022-10-25T07:14:02.224Z,2.50
2022-10-25T07:16:29.377Z,2.08
2022-10-25T07:19:03.586Z,1.65
2022-10-25T07:21:32.663Z,2.40
2022-10-25T07:23:59.569Z,2.20
2022-10-25T07:26:31.256Z,2.38
2022-10-25T07:29:00.589Z,2.22
2022-10-25T07:31:36.891Z,2.45
2022-10-25T07:34:05.438Z,2.95
2022-10-25T07:36:32.750Z,2.40
2022-10-25T07:39:03.809Z,2.50
2022-10-25T07:41:34.067Z,2.28
2022-10-25T07:46:53.938Z,1.95
2022-10-25T07:49:20.812Z,2.38
2022-10-25T07:51:53.737Z,2.47
2022-10-25T07:54:25.508Z,2.22
2022-10-25T07:56:52.281Z,1.98
2022-10-25T07:59:19.201Z,2.45
2022-10-25T08:01:46.164Z,2.70
2022-10-25T08:04:13.097Z,1.63
2022-10-25T08:06:40.569Z,2.03
2022-10-25T08:09:14.886Z,1.92
2022-10-25T08:11:54.010Z,2.37
2022-10-25T08:14:20.941Z,2.03
2022-10-25T08:16:47.798Z,1.83
2022-10-25T08:19:14.635Z,1.70
2022-10-25T08:21:41.713Z,2.15
2022-10-25T08:24:08.628Z,1.92
2022-10-25T08:26:36.994Z,1.58
2022-10-25T08:29:29.675Z,2.50
2022-10-25T08:31:56.842Z,2.10
2022-10-25T08:34:32.379Z,2.00
2022-10-25T08:37:00.355Z,1.95
2022-10-25T08:39:27.128Z,2.17
2022-10-25T08:42:00.871Z,1.73
2022-10-25T08:44:45.773Z,2.40
2022-10-25T08:47:27.134Z,1.92
2022-10-25T08:50:01.998Z,1.85
2022-10-25T08:52:54.645Z,1.65
2022-10-25T08:55:41.579Z,1.83
2022-10-25T08:58:45.291Z,1.70
2022-10-25T09:01:24.760Z,1.77
2022-10-25T09:03:54.223Z,1.98
2022-10-25T09:06:56.168Z,1.70
2022-10-25T09:12:53.067Z,1.63
2022-10-25T09:15:30.390Z,2.35
2022-10-25T09:18:19.332Z,1.95
2022-10-25T09:20:51.116Z,1.80
2022-10-25T09:23:36.194Z,2.03
2022-10-25T09:26:26.373Z,1.90
2022-10-25T09:29:05.322Z,1.90
2022-10-25T09:31:43.187Z,2.30
2022-10-25T09:34:11.463Z,2.65
2022-10-25T09:36:47.153Z,2.40
2022-10-25T09:39:42.929Z,2.35
2022-10-25T09:42:22.186Z,2.95
2022-10-25T09:44:55.037Z,2.10
2022-10-25T09:47:51.046Z,2.97
2022-10-25T09:50:44.522Z,1.92
2022-10-25T09:53:20.328Z,2.30
2022-10-25T09:56:02.589Z,2.08
2022-10-25T09:58:36.620Z,1.88
2022-10-25T10:01:18.382Z,2.42
2022-10-25T10:09:35.085Z,1.75
2022-10-25T10:15:01.455Z,1.67
2022-10-25T10:17:30.551Z,1.60
2022-10-25T10:20:16.784Z,1.67
2022-10-25T10:22:51.842Z,1.77
2022-10-25T10:25:26.557Z,1.85
2022-10-25T10:27:58.057Z,1.88
2022-10-25T10:30:31.617Z,1.80
2022-10-25T10:33:01.534Z,1.33
2022-10-25T10:35:31.917Z,1.73
2022-10-25T10:38:24.737Z,2.10
2022-10-25T10:41:23.516Z,1.30
2022-10-25T10:43:51.213Z,1.63
2022-10-25T10:46:24.815Z,1.38
2022-10-25T10:48:57.493Z,1.75
2022-10-25T10:51:44.054Z,1.63
2022-10-25T10:54:46.517Z,1.80
2022-10-25T10:57:35.996Z,1.65
2022-10-25T11:00:05.700Z,1.38
2022-10-25T11:02:42.311Z,1.70
2022-10-25T11:05:34.210Z,1.48
2022-10-25T11:08:19.598Z,1.90
2022-10-25T11:10:46.765Z,1.40
2022-10-25T11:13:17.204Z,1.83
2022-10-25T11:16:41.443Z,1.58
2022-10-25T11:19:11.260Z,1.75
2022-10-25T11:22:00.479Z,2.20
2022-10-25T11:24:53.676Z,1.50
2022-10-25T11:28:05.085Z,1.92
2022-10-25T11:31:11.172Z,1.85
2022-10-25T11:34:32.856Z,1.90
2022-10-25T11:37:24.473Z,1.63
2022-10-25T11:40:13.631Z,1.40
2022-10-25T11:42:48.876Z,1.42
2022-10-25T11:45:31.749Z,1.60
2022-10-25T11:48:30.305Z,1.40
2022-10-25T11:51:32.161Z,1.23
2022-10-25T11:54:13.965Z,1.67
2022-10-25T11:57:08.845Z,1.30
2022-10-25T12:00:03.876Z,1.13
2022-10-25T12:03:01.890Z,1.35
2022-10-25T12:06:14.104Z,1.48
2022-10-25T12:09:21.825Z,1.73
2022-10-25T12:14:33.996Z,1.58
2022-10-25T12:17:03.444Z,1.55
2022-10-25T12:19:44.009Z,1.52
2022-10-25T12:22:40.421Z,1.35
2022-10-25T12:25:22.972Z,1.33
2022-10-25T12:28:06.739Z,1.23
2022-10-25T12:30:35.351Z,1.38
2022-10-25T12:33:25.823Z,1.23
2022-10-25T12:35:59.690Z,1.40
2022-10-25T12:38:39.528Z,1.42
2022-10-25T12:41:19.772Z,1.20
2022-10-25T12:44:37.721Z,1.48
2022-10-25T12:47:40.876Z,1.60
2022-10-25T12:50:35.817Z,1.30
2022-10-25T12:53:35.122Z,1.17
2022-10-25T12:56:48.135Z,1.20
2022-10-25T12:59:45.000Z,1.67
2022-10-25T13:02:44.491Z,1.48
2022-10-25T13:05:49.284Z,1.92
2022-10-25T13:08:22.436Z,1.60
2022-10-25T13:10:58.617Z,1.45
2022-10-25T13:13:33.766Z,1.25
2022-10-25T13:16:05.347Z,1.42
2022-10-25T13:18:32.403Z,1.92
2022-10-25T13:21:05.609Z,1.88
2022-10-25T13:23:51.616Z,1.77
2022-10-25T13:26:21.385Z,1.50
2022-10-25T13:28:54.301Z,1.33
2022-10-25T13:31:36.300Z,1.63
2022-10-25T13:34:12.576Z,2.42
2022-10-25T13:36:54.168Z,1.55
2022-10-25T13:39:38.630Z,1.90
2022-10-25T13:42:14.515Z,1.58
2022-10-25T13:44:59.357Z,1.25
2022-10-25T13:47:48.191Z,1.65
2022-10-25T13:50:30.881Z,1.25
2022-10-25T13:53:08.791Z,1.73
2022-10-25T13:55:46.584Z,2.13
2022-10-25T13:58:31.718Z,1.40
2022-10-25T14:01:17.933Z,1.95
2022-10-25T14:04:03.639Z,1.50
2022-10-25T14:06:36.365Z,1.35
2022-10-25T14:09:09.511Z,1.33
2022-10-25T14:11:51.709Z,1.70
2022-10-25T14:14:31.704Z,1.25
2022-10-25T14:17:18.888Z,1.02
2022-10-25T14:19:54.828Z,2.15
2022-10-25T14:22:34.972Z,1.35
2022-10-25T14:25:20.844Z,1.17
2022-10-25T14:27:48.565Z,1.02
2022-10-25T14:30:26.100Z,1.55
2022-10-25T14:33:03.702Z,1.20
2022-10-25T14:35:55.998Z,1.23
2022-10-25T14:38:26.493Z,1.52
2022-10-25T14:41:00.149Z,1.25
2022-10-25T14:43:28.669Z,1.15
2022-10-25T14:46:11.606Z,1.70
2022-10-25T14:48:38.729Z,1.50
2022-10-25T14:51:12.861Z,1.80
2022-10-25T14:53:56.957Z,1.55
2022-10-25T14:56:32.868Z,1.50
2022-10-25T14:59:00.936Z,1.50
2022-10-25T15:01:28.193Z,1.58
2022-10-25T15:03:59.345Z,1.52
2022-10-25T15:06:31.391Z,2.10
2022-10-25T15:09:40.721Z,1.73
2022-10-25T15:12:08.129Z,1.75
2022-10-25T15:14:35.739Z,1.73
2022-10-25T15:17:18.820Z,1.55
2022-10-25T15:20:16.998Z,2.00
2022-10-25T15:22:47.469Z,1.70
2022-10-25T15:25:23.983Z,1.90
2022-10-25T15:27:55.617Z,2.03
2022-10-25T15:30:50.026Z,2.40
2022-10-25T15:33:25.605Z,1.80
2022-10-25T15:36:04.437Z,1.70
2022-10-25T15:39:06.303Z,1.90
2022-10-25T15:41:23.665Z,2.00
2022-10-25T15:43:52.162Z,1.98
2022-10-25T15:46:36.320Z,2.17
2022-10-25T15:49:08.509Z,2.70
2022-10-25T15:51:40.997Z,2.47
2022-10-25T15:54:20.224Z,2.42
2022-10-25T15:57:11.972Z,2.80
2022-10-25T15:59:39.039Z,2.80
2022-10-25T16:02:23.374Z,2.42
2022-10-25T16:04:50.494Z,2.88
2022-10-25T16:07:17.721Z,2.33
2022-10-25T16:09:44.633Z,2.13
2022-10-25T16:12:30.603Z,2.50
2022-10-25T16:15:22.822Z,2.35
2022-10-25T16:17:49.735Z,2.45
2022-10-25T16:20:21.705Z,2.38
2022-10-25T16:22:49.949Z,2.40
2022-10-25T16:25:18.623Z,2.63
2022-10-25T16:27:47.147Z,2.70
2022-10-25T16:30:18.721Z,2.90
2022-10-25T16:32:46.220Z,2.83
2022-10-25T16:35:14.197Z,3.15
2022-10-25T16:37:42.078Z,2.92
2022-10-25T16:40:14.844Z,2.92
2022-10-25T16:42:45.222Z,3.25
2022-10-25T16:45:20.800Z,3.38
2022-10-25T16:47:47.639Z,3.70
2022-10-25T16:50:15.128Z,3.15
2022-10-25T16:52:42.311Z,3.75
2022-10-25T16:55:10.824Z,4.13
2022-10-25T16:57:37.932Z,5.38
2022-10-25T17:00:05.670Z,4.72
2022-10-25T17:02:32.687Z,4.80
2022-10-25T17:04:59.838Z,4.22
2022-10-25T17:07:27.177Z,3.95
2022-10-25T17:09:54.030Z,5.35
2022-10-25T17:12:21.186Z,5.18
2022-10-25T17:14:48.154Z,5.55
2022-10-25T17:17:15.116Z,5.32
2022-10-25T17:19:42.144Z,5.53
2022-10-25T17:22:09.454Z,5.18
2022-10-25T17:24:37.502Z,5.70
2022-10-25T17:27:07.062Z,6.07
2022-10-25T17:29:33.990Z,5.75
2022-10-25T17:32:01.087Z,6.90
2022-10-25T17:34:28.327Z,7.07
2022-10-25T17:36:55.140Z,6.30
2022-10-25T17:39:22.226Z,6.43
2022-10-25T17:41:49.124Z,6.93
2022-10-25T17:44:15.940Z,8.77
2022-10-25T17:49:10.748Z,7.68
2022-10-25T17:51:37.678Z,7.70
2022-10-25T17:54:04.552Z,6.43
2022-10-25T17:59:05.741Z,6.28
2022-10-25T18:01:35.413Z,6.22
2022-10-25T18:04:02.488Z,6.85
2022-10-25T18:06:31.107Z,6.68
2022-10-25T18:08:59.081Z,6.95
2022-10-25T18:11:28.163Z,8.18
2022-10-25T18:13:58.089Z,8.00
2022-10-25T18:16:27.110Z,8.00
2022-10-25T18:18:57.240Z,7.97
2022-10-25T18:21:24.818Z,7.68
2022-10-25T18:23:57.360Z,8.02
2022-10-25T18:26:25.260Z,7.05
2022-10-25T18:28:52.324Z,8.52
2022-10-25T18:31:20.867Z,8.55
2022-10-25T18:33:48.278Z,7.47
2022-10-25T18:36:19.898Z,7.28
2022-10-25T18:38:50.351Z,7.35
2022-10-25T18:41:21.947Z,7.82
2022-10-25T18:43:49.064Z,7.95
2022-10-25T18:46:16.325Z,7.38
2022-10-25T18:48:45.065Z,7.28
2022-10-25T18:51:14.108Z,7.13
2022-10-25T18:53:41.173Z,7.40
2022-10-25T18:56:11.297Z,7.90
2022-10-25T18:58:39.020Z,6.78
2022-10-25T19:01:12.462Z,6.13
2022-10-25T19:03:40.503Z,6.72
2022-10-25T19:06:08.534Z,6.25
2022-10-25T19:08:36.729Z,5.80
2022-10-25T19:11:10.409Z,6.13
2022-10-25T19:13:38.425Z,6.72
2022-10-25T19:16:06.314Z,5.65
2022-10-25T19:18:34.326Z,5.82
2022-10-25T19:21:07.910Z,6.00
2022-10-25T19:23:35.744Z,5.40
2022-10-25T19:26:09.410Z,6.20
2022-10-25T19:28:36.330Z,6.43
2022-10-25T19:31:06.974Z,6.65
2022-10-25T19:33:34.449Z,5.20
2022-10-25T19:36:05.234Z,5.72
2022-10-25T19:38:36.117Z,7.72
2022-10-25T19:41:05.886Z,6.25
2022-10-25T19:43:33.503Z,6.70
2022-10-25T19:46:04.920Z,8.25
2022-10-25T19:48:32.975Z,7.53
2022-10-25T19:51:10.026Z,8.05
2022-10-25T19:53:37.302Z,6.85
2022-10-25T19:56:21.880Z,7.50
2022-10-25T19:58:51.551Z,7.90
2022-10-25T20:01:23.362Z,7.05
2022-10-25T20:03:52.942Z,7.20
2022-10-25T20:06:24.686Z,6.63
2022-10-25T20:08:52.945Z,7.53
2022-10-25T20:11:21.750Z,6.30
2022-10-25T20:13:53.317Z,6.28
2022-10-25T20:16:20.632Z,5.65
2022-10-25T20:18:47.473Z,5.80
2022-10-25T20:21:39.713Z,5.93
2022-10-25T20:24:10.195Z,6.45
2022-10-25T20:26:40.865Z,6.55
2022-10-25T20:29:18.453Z,6.72
2022-10-25T20:31:48.849Z,6.80
2022-10-25T20:34:16.427Z,6.90
2022-10-25T20:36:43.272Z,9.25
2022-10-25T20:39:12.790Z,8.75
2022-10-25T20:41:40.113Z,7.47
2022-10-25T20:44:08.730Z,7.63
2022-10-25T20:46:36.117Z,6.82
2022-10-25T20:49:04.805Z,6.93
2022-10-25T20:51:31.931Z,6.90
2022-10-25T20:53:58.873Z,7.43
2022-10-25T20:56:26.057Z,7.13
2022-10-25T20:58:52.944Z,8.07
2022-10-25T21:01:21.341Z,7.40
2022-10-25T21:03:48.303Z,7.45
2022-10-25T21:06:15.412Z,7.03
2022-10-25T21:08:42.310Z,8.23
2022-10-25T21:11:12.386Z,8.43
2022-10-25T21:13:39.692Z,8.57
2022-10-25T21:16:13.038Z,7.63
2022-10-25T21:18:41.125Z,7.43
2022-10-25T21:21:13.237Z,8.75
2022-10-25T21:23:40.119Z,9.23
2022-10-25T21:26:08.100Z,9.27
2022-10-25T21:28:38.299Z,10.13
2022-10-25T21:31:09.344Z,9.38
2022-10-25T21:33:36.436Z,8.35
2022-10-25T21:36:11.683Z,8.55
2022-10-25T21:38:39.731Z,8.15
2022-10-25T21:41:13.964Z,8.10
2022-10-25T21:43:44.959Z,7.95
2022-10-25T21:46:13.038Z,8.10
2022-10-25T21:48:40.704Z,7.70
2022-10-25T21:51:07.941Z,8.00
2022-10-25T21:53:34.915Z,8.20
2022-10-25T21:56:13.035Z,7.75
2022-10-25T21:58:42.497Z,7.40
2022-10-25T22:01:15.873Z,7.55
2022-10-25T22:03:43.079Z,7.00
2022-10-25T22:06:17.467Z,7.68
2022-10-25T22:08:45.300Z,7.72
2022-10-25T22:11:15.053Z,7.28
2022-10-25T22:13:42.757Z,6.85
2022-10-25T22:16:16.049Z,6.85
2022-10-25T22:18:47.864Z,8.18
2022-10-25T22:21:14.796Z,6.72
2022-10-25T22:23:41.739Z,7.63
2022-10-25T22:26:12.265Z,8.05
2022-10-25T22:28:41.086Z,8.38
2022-10-25T22:31:15.963Z,7.60
2022-10-25T22:33:44.149Z,8.45
2022-10-25T22:36:16.429Z,7.07
2022-10-25T22:38:43.887Z,6.88
2022-10-25T22:41:16.570Z,7.20
2022-10-25T22:43:43.989Z,7.07
2022-10-25T22:46:22.150Z,6.75
2022-10-25T22:48:49.763Z,7.22
2022-10-25T22:51:16.947Z,7.35
2022-10-25T22:53:44.186Z,7.32
2022-10-25T22:56:22.165Z,7.72
2022-10-25T22:58:52.473Z,6.82
2022-10-25T23:01:31.652Z,7.60
2022-10-25T23:04:00.313Z,7.65
2022-10-25T23:06:33.968Z,6.75
2022-10-25T23:09:05.877Z,7.88
2022-10-25T23:11:35.506Z,7.43
2022-10-25T23:14:05.047Z,7.15
2022-10-25T23:16:32.139Z,7.68
2022-10-25T23:18:59.294Z,6.93
2022-10-25T23:21:30.217Z,7.32
2022-10-25T23:24:03.609Z,6.97
2022-10-25T23:26:33.561Z,7.45
2022-10-25T23:29:01.232Z,7.15
2022-10-25T23:31:29.697Z,7.68
2022-10-25T23:33:59.984Z,7.05
2022-10-25T23:36:30.957Z,7.72
2022-10-25T23:38:58.551Z,7.40
2022-10-25T23:41:25.672Z,7.43
2022-10-25T23:43:52.932Z,8.05
2022-10-25T23:46:19.735Z,8.43
2022-10-25T23:49:11.819Z,7.35
2022-10-25T23:51:38.676Z,8.38
2022-10-25T23:54:09.331Z,8.15
2022-10-25T23:56:37.304Z,7.80
2022-10-25T23:59:04.342Z,7.43
